Bookmark and Share
Track history (hours):
 

Neocaligus

Last reported at 2014-Apr-18 23:12 UTC. Time now 2014-Apr-19 00:03 UTC.
Position N 48°39' W 123°27'.

Length 23 m; draft 3.5 m.

Type: Fishing. MMSI: 316001759.

NotesDate/timePositionNaut miles runAvg speedWind from/ knotsBaromVisibWave heightAir tempDewpointWater temp
2014-Apr-18 23:12N 48°39' W 123°27'0 0.0
2014-Apr-18 22:30N 48°39' W 123°27'0 0.0
2014-Apr-18 21:30N 48°39' W 123°27'0 0.0
2014-Apr-18 20:30N 48°39' W 123°27'0 0.0
2014-Apr-18 18:18N 48°39' W 123°27'0 0.0
2014-Apr-18 17:24N 48°39' W 123°27'0 0.0
2014-Apr-18 16:24N 48°39' W 123°27'0 0.0
2014-Apr-18 13:12N 48°39' W 123°27'0 0.0
2014-Apr-18 12:30N 48°39' W 123°27'0 0.0
2014-Apr-18 11:30N 48°39' W 123°27'0 0.0
2014-Apr-18 09:18N 48°39' W 123°27'0 0.0
2014-Apr-18 08:24N 48°39' W 123°27'0 0.0
2014-Apr-18 06:30N 48°39' W 123°27'0 0.0
2014-Apr-18 04:18N 48°39' W 123°27'0 0.0
2014-Apr-18 03:30N 48°39' W 123°27'0 0.0
2014-Apr-18 01:24N 48°39' W 123°27'0 0.0
2014-Apr-18 00:24N 48°39' W 123°27'0 0.0
2014-Apr-17 23:12N 48°39' W 123°27'0 0.0
2014-Apr-17 22:24N 48°39' W 123°27'0 0.0
2014-Apr-17 20:18N 48°39' W 123°27'0 0.1
2014-Apr-17 19:20N 48°39' W 123°27'12 6.6
2014-Apr-17 17:33N 48°50' W 123°21'7 7.2
2014-Apr-17 16:33N 48°57' W 123°17'6 5.8
2014-Apr-17 15:34N 49°03' W 123°18'6 5.8
2014-Apr-17 14:34N 49°08' W 123°13'1 1.2
2014-Apr-17 13:32N 49°07' W 123°11'0 0.0
2014-Apr-17 12:32N 49°07' W 123°11'0 0.0
2014-Apr-17 11:32N 49°07' W 123°11'0 0.0
2014-Apr-17 10:29N 49°07' W 123°11'0 0.0
2014-Apr-17 09:32N 49°07' W 123°11'0 0.0
2014-Apr-17 08:32N 49°07' W 123°11'0 0.0
2014-Apr-17 07:32N 49°07' W 123°11'0 0.0
2014-Apr-17 06:29N 49°07' W 123°11'0 0.0
2014-Apr-17 05:29N 49°07' W 123°11'0 0.0
2014-Apr-17 04:29N 49°07' W 123°11'0 0.0
2014-Apr-17 03:29N 49°07' W 123°11'4 4.6
2014-Apr-17 02:34N 49°06' W 123°18'9 9.4
2014-Apr-17 01:34N 48°57' W 123°18'9 8.5
2014-Apr-17 00:33N 48°49' W 123°21'9 8.4
2014-Apr-16 23:33N 48°43' W 123°30'4 4.3
2014-Apr-16 22:32N 48°45' W 123°36'1 0.7
2014-Apr-16 21:33N 48°44' W 123°36'4 4.1
2014-Apr-16 20:33N 48°42' W 123°31'4 1.1
2014-Apr-16 17:23N 48°39' W 123°27'0 0.0
2014-Apr-16 11:23N 48°39' W 123°27'0 0.0
2014-Apr-16 09:17N 48°39' W 123°27'0 0.0
2014-Apr-16 04:11N 48°39' W 123°27'0 0.0
2014-Apr-16 03:17N 48°39' W 123°27'0 0.0
2014-Apr-16 02:23N 48°39' W 123°27'0 0.0
2014-Apr-16 00:29N 48°39' W 123°27'1 0.6
2014-Apr-15 23:33N 48°39' W 123°28'3 2.7
2014-Apr-15 22:32N 48°38' W 123°32'2 2.0
2014-Apr-15 21:33N 48°40' W 123°31'2 2.4
2014-Apr-15 20:33N 48°38' W 123°30'2 1.7
2014-Apr-15 19:33N 48°40' W 123°30'2 1.6
2014-Apr-15 18:33N 48°38' W 123°30'2 2.1
2014-Apr-15 17:27N 48°39' W 123°27'0 0.0
2014-Apr-15 15:27N 48°39' W 123°27'0 0.0
2014-Apr-15 03:33N 48°39' W 123°27'0 0.0
2014-Apr-14 23:33N 48°39' W 123°27'7 6.6
2014-Apr-14 22:34N 48°44' W 123°33'8 8.0
2014-Apr-14 21:34N 48°52' W 123°36'9 8.8
2014-Apr-14 20:33N 48°60' W 123°43'16 5.3
2014-Apr-14 17:32N 49°13' W 123°57'0 0.0
2014-Apr-14 15:32N 49°13' W 123°57'0 0.0
2014-Apr-14 14:32N 49°13' W 123°57'0 0.0
2014-Apr-14 13:32N 49°13' W 123°57'0 0.0
2014-Apr-14 11:32N 49°13' W 123°57'0 0.0
2014-Apr-14 10:32N 49°13' W 123°57'0 0.0
2014-Apr-14 09:32N 49°13' W 123°57'0 0.0
2014-Apr-14 08:32N 49°13' W 123°57'0 0.0
2014-Apr-14 07:32N 49°13' W 123°57'0 0.0
2014-Apr-14 06:32N 49°13' W 123°57'0 0.0
2014-Apr-14 05:32N 49°13' W 123°57'0 0.0
2014-Apr-13 20:26N 49°13' W 123°57'0 0.0
2014-Apr-13 18:26N 49°13' W 123°57'0 0.0
2014-Apr-13 17:26N 49°13' W 123°57'0 0.0
2014-Apr-13 16:32N 49°13' W 123°57'0 0.0
2014-Apr-13 15:26N 49°13' W 123°57'0 0.0
2014-Apr-13 14:32N 49°13' W 123°57'0 0.0
2014-Apr-13 13:32N 49°13' W 123°57'0 0.0
2014-Apr-13 12:32N 49°13' W 123°57'0 0.0
2014-Apr-13 11:32N 49°13' W 123°57'0 0.0
2014-Apr-13 10:32N 49°13' W 123°57'0 0.0
2014-Apr-13 09:23N 49°13' W 123°57'0 0.0
2014-Apr-13 08:32N 49°13' W 123°57'0 0.0
2014-Apr-13 07:32N 49°13' W 123°57'0 0.0
2014-Apr-13 06:14N 49°13' W 123°57'0 0.0
2014-Apr-13 05:17N 49°13' W 123°57'0 0.0
2014-Apr-13 04:20N 49°13' W 123°57'0 0.0
2014-Apr-13 03:32N 49°13' W 123°57'0 0.0
2014-Apr-13 02:32N 49°13' W 123°57'0 0.0
2014-Apr-13 01:20N 49°13' W 123°57'0 0.0
2014-Apr-13 00:29N 49°13' W 123°57'0 0.0
2014-Apr-12 23:32N 49°13' W 123°57'0 0.0
2014-Apr-12 22:32N 49°13' W 123°57'0 0.0
2014-Apr-12 21:32N 49°13' W 123°57'0 0.0
2014-Apr-12 20:32N 49°13' W 123°57'0 0.0
2014-Apr-12 19:32N 49°13' W 123°57'0 0.0
2014-Apr-12 18:32N 49°13' W 123°57'0 0.0
2014-Apr-12 17:32N 49°13' W 123°57'0 0.0
2014-Apr-12 16:32N 49°13' W 123°57'0 0.0
2014-Apr-12 15:32N 49°13' W 123°57'0 0.0
2014-Apr-12 14:32N 49°13' W 123°57'0 0.0
2014-Apr-12 13:32N 49°13' W 123°57'0 0.0
2014-Apr-12 12:29N 49°13' W 123°57'0 0.0
2014-Apr-12 11:32N 49°13' W 123°57'0 0.0
2014-Apr-12 10:29N 49°13' W 123°57'0 0.0
2014-Apr-12 09:32N 49°13' W 123°57'0 0.0
2014-Apr-12 08:23N 49°13' W 123°57'0 0.0
2014-Apr-12 07:32N 49°13' W 123°57'0 0.0
2014-Apr-12 06:32N 49°13' W 123°57'0 0.0
2014-Apr-12 05:32N 49°13' W 123°57'0 0.0
2014-Apr-12 04:32N 49°13' W 123°57'0 0.0
2014-Apr-12 03:32N 49°13' W 123°57'0 0.0
2014-Apr-12 02:32N 49°13' W 123°57'0 0.0
2014-Apr-12 01:32N 49°13' W 123°57'0 0.0
2014-Apr-12 00:32N 49°13' W 123°57'0 0.0
2014-Apr-11 23:29N 49°13' W 123°57'0 0.0
2014-Apr-11 22:23N 49°13' W 123°57'0 0.0
2014-Apr-11 21:23N 49°13' W 123°57'0 0.0
2014-Apr-11 20:23N 49°13' W 123°57'0 0.0
2014-Apr-11 19:29N 49°13' W 123°57'0 0.0
2014-Apr-11 18:11N 49°13' W 123°57'0 0.0
2014-Apr-11 17:29N 49°13' W 123°57'0 0.0
2014-Apr-11 16:32N 49°13' W 123°57'0 0.0
2014-Apr-11 15:32N 49°13' W 123°57'0 0.0
2014-Apr-11 14:32N 49°13' W 123°57'0 0.0
2014-Apr-11 13:32N 49°13' W 123°57'0 0.0
2014-Apr-11 12:32N 49°13' W 123°57'0 0.0
2014-Apr-11 11:32N 49°13' W 123°57'0 0.0
2014-Apr-11 10:32N 49°13' W 123°57'0 0.0
2014-Apr-11 09:32N 49°13' W 123°57'0 0.0
2014-Apr-11 08:32N 49°13' W 123°57'0 0.0
2014-Apr-11 07:26N 49°13' W 123°57'0 0.0
2014-Apr-11 06:29N 49°13' W 123°57'0 0.0
2014-Apr-11 05:29N 49°13' W 123°57'0 0.0
2014-Apr-11 04:32N 49°13' W 123°57'0 0.0
2014-Apr-11 03:32N 49°13' W 123°57'0 0.0
2014-Apr-11 02:29N 49°13' W 123°57'0 0.0
2014-Apr-11 01:29N 49°13' W 123°57'0 0.0
2014-Apr-11 00:32N 49°13' W 123°57'0 0.0
2014-Apr-10 23:29N 49°13' W 123°57'0 0.0
2014-Apr-10 22:29N 49°13' W 123°57'0 0.0
2014-Apr-10 21:26N 49°13' W 123°57'0 0.0
2014-Apr-10 20:29N 49°13' W 123°57'0 0.0
2014-Apr-10 19:32N 49°13' W 123°57'0 0.0
2014-Apr-10 18:29N 49°13' W 123°57'0 0.0
2014-Apr-10 17:32N 49°13' W 123°57'0 0.0
2014-Apr-10 16:23N 49°13' W 123°57'0 0.0
2014-Apr-10 15:29N 49°13' W 123°57'0 0.0
2014-Apr-10 14:32N 49°13' W 123°57'0 0.0
2014-Apr-10 13:29N 49°13' W 123°57'0 0.0
2014-Apr-10 12:32N 49°13' W 123°57'0 0.0
2014-Apr-10 11:32N 49°13' W 123°57'0 0.0
2014-Apr-10 10:32N 49°13' W 123°57'0 0.0
2014-Apr-10 09:32N 49°13' W 123°57'0 0.0
2014-Apr-10 08:32N 49°13' W 123°57'0 0.0
2014-Apr-10 07:32N 49°13' W 123°57'0 0.0
2014-Apr-10 06:32N 49°13' W 123°57'0 0.0
2014-Apr-10 05:32N 49°13' W 123°57'0 0.0
2014-Apr-10 04:32N 49°13' W 123°57'0 0.0
2014-Apr-10 03:32N 49°13' W 123°57'0 0.0
2014-Apr-10 02:32N 49°13' W 123°57'0 0.0
2014-Apr-10 01:29N 49°13' W 123°57'0 0.0
2014-Apr-10 00:17N 49°13' W 123°57'0 0.0
2014-Apr-09 23:29N 49°13' W 123°57'0 0.0
2014-Apr-09 22:23N 49°13' W 123°57'0 0.0
2014-Apr-09 21:29N 49°13' W 123°57'0 0.0
2014-Apr-09 20:29N 49°13' W 123°57'0 0.0
2014-Apr-09 19:32N 49°13' W 123°57'0 0.0
2014-Apr-09 18:32N 49°13' W 123°57'0 0.0
2014-Apr-09 17:32N 49°13' W 123°57'0 0.0
2014-Apr-09 16:32N 49°13' W 123°57'0 0.0
2014-Apr-09 15:32N 49°13' W 123°57'0 0.0
2014-Apr-09 14:32N 49°13' W 123°57'0 0.0
2014-Apr-09 13:32N 49°13' W 123°57'0 0.0
2014-Apr-09 12:32N 49°13' W 123°57'0 0.0
2014-Apr-09 11:32N 49°13' W 123°57'0 0.0
2014-Apr-09 10:26N 49°13' W 123°57'0 0.0
2014-Apr-09 09:32N 49°13' W 123°57'0 0.0
2014-Apr-09 08:32N 49°13' W 123°57'0 0.0
2014-Apr-09 07:32N 49°13' W 123°57'0 0.0
2014-Apr-09 06:32N 49°13' W 123°57'0 0.0
2014-Apr-09 05:29N 49°13' W 123°57'0 0.0
2014-Apr-09 04:32N 49°13' W 123°57'0 0.0
2014-Apr-09 03:26N 49°13' W 123°57'0 0.0
2014-Apr-09 02:20N 49°13' W 123°57'0 0.0
2014-Apr-09 01:32N 49°13' W 123°57'0 0.0
2014-Apr-09 00:20N 49°13' W 123°57'0 0.0
2014-Apr-08 23:32N 49°13' W 123°57'  

Dump ship's entire track history

sailing weather and tide predictions

Neocaligus — CG7677 — position and weather